TLSO2: Arkansas River, Tulsa, OK

Data processed at Sat Jul 14 2018 23:47


All information presented herein is the property of the government of the United States of America and may be revised or deleted at any time without prior notice.
Dissemination of this information without the expressed written consent of the Public Affairs Office, Tulsa District U.S. Army Corps of Engineers is strictly prohibited.
These data are gathered electronically and, as presented, have not undergone any form of quality control. These data are not guaranteed to be valid or correct.
Go to home page.
Go to station list.

Upstream stations:

Downstream station:
Previous Day
Next Day
Current Day
    
SHEF ID:       TLSO2     Arkansas River at Tulsa, OK
STATION TYPE:  

               PRECIP     STAGE  STAGE(2)  RIV-FLOW  WTR-TEMP   DIS-OXY  BAT-LOAD
                   in        ft        ft       cfs         F      mg/l      volt
              Ccp-Rev   Ccp-Rev   Ccp-Rev   Ccp-Rev   Ccp-Rev   Ccp-Rev   Ccp-Rev
(US/Central)
07/12 00:00      0.00      4.87      ----     11638     84.74      4.27     12.65
07/12 01:00      0.00      4.84      ----     11486     84.11      3.91     12.65
07/12 02:00      0.00      4.68      ----     10690     83.97      4.12     12.65
07/12 03:00      0.00      4.37      ----      9186     83.37      3.63     12.57
07/12 04:00      0.00      4.01      ----      7457     83.01      3.58     12.57
07/12 05:00      0.00      3.68      ----      5870     82.78      3.71     12.57
07/12 06:00      0.00      3.38      ----      4510     82.54      3.81     12.57
07/12 07:00      0.00      3.12      ----      3547     82.26      4.00     12.57
07/12 08:00      0.00      2.91      ----      2876     82.38      4.47     12.65
07/12 09:00      0.00      2.73      ----      2372     82.40      4.79     12.97
07/12 10:00      0.00      2.58      ----      1999     83.03      5.34     13.21
07/12 11:00      0.00      2.48      ----      1774     84.22      5.99     13.13
07/12 12:00      0.00      2.38      ----      1565     85.19      6.29     13.05
07/12 13:00      0.00      2.31      ----      1429     86.40      6.88     13.05
07/12 14:00      0.00      2.26      ----      1337     87.53      7.45     13.05
07/12 15:00      0.00      2.20      ----      1231     88.88      8.12     13.13
07/12 16:00      0.00      2.25      ----      1319     89.94      8.71     13.29
07/12 17:00      0.00      3.14      ----      3616     92.44      8.95     13.21
07/12 18:00      0.00      4.12      ----      7985     90.57      7.92     13.13
07/12 19:00      0.00      4.58      ----     10205     88.59      6.52     13.13
07/12 20:00      0.00      4.74      ----     10985     87.64      6.27     12.97
07/12 21:00      0.00      4.83      ----     11435     86.34      5.44     12.65
07/12 22:00      0.00      4.87      ----     11638     85.73      5.08     12.65
07/12 23:00      0.00      4.90      ----     11792     84.97      4.63     12.65